Date,TemperatureHighF,TemperatureAvgF,TemperatureLowF,DewpointHighF,DewpointAvgF,DewpointLowF,HumidityHigh,HumidityAvg,HumidityLow,PressureMaxIn,PressureMinIn,WindSpeedMaxMPH,WindSpeedAvgMPH,GustSpeedMaxMPH,PrecipitationSumIn
2014-3-1,37,25,9,24,11,-2,75,57,34,30.45,30.10,2,0,3,0.00
2014-3-2,40,34,30,27,24,19,75,65,56,30.09,29.95,3,0,6,0.00
2014-3-3,30,22,14,18,6,-3,62,51,41,30.30,29.99,5,2,10,0.00
2014-3-4,30,21,8,9,2,-3,64,45,30,30.39,30.25,3,1,4,0.00
2014-3-5,30,24,18,22,16,7,85,72,43,30.49,30.24,1,1,3,0.00
2014-3-6,30,20,9,11,4,-3,75,53,25,30.65,30.50,3,1,5,0.00
2014-3-7,40,27,10,28,18,7,89,73,47,30.50,29.95,1,0,3,0.00
2014-3-8,55,39,23,29,26,21,91,63,35,29.95,29.67,4,1,6,0.00
2014-3-9,42,34,26,22,14,9,66,45,27,29.94,29.85,5,2,9,0.00
2014-3-10,45,36,29,30,24,14,86,64,46,29.89,29.66,4,1,7,0.02
2014-3-11,59,45,35,37,32,28,90,64,34,29.72,29.50,5,1,7,0.00
2014-3-12,51,40,38,39,34,32,90,79,56,29.72,29.03,2,0,6,0.31
2014-3-13,37,22,17,35,15,3,91,74,49,29.93,28.99,8,5,9,0.05
2014-3-14,40,27,13,28,11,1,71,52,33,30.18,29.92,5,2,8,0.01
2014-3-15,56,45,37,40,33,28,85,64,41,29.90,29.65,6,2,13,0.02
2014-3-16,39,32,25,26,11,2,65,43,25,30.20,29.86,7,4,9,0.00
2014-3-17,32,23,16,14,3,-3,74,43,25,30.20,30.05,4,1,5,0.00
2014-3-18,40,28,17,21,14,4,79,58,42,30.35,30.17,2,1,2,0.00
2014-3-19,45,33,22,31,26,18,88,75,55,30.40,30.00,3,1,6,0.00
2014-3-20,52,42,37,42,34,27,91,75,47,30.01,29.61,5,2,9,0.30
2014-3-21,44,38,32,26,24,23,68,57,44,30.03,29.74,7,4,14,0.00
2014-3-22,56,40,26,43,27,20,80,61,37,30.06,29.65,7,2,9,0.01
2014-3-23,44,36,26,26,18,6,72,51,30,30.06,29.90,5,2,7,0.00
2014-3-24,33,24,16,7,2,0,52,39,24,30.17,30.05,6,3,9,0.00
2014-3-25,40,29,17,18,11,6,71,48,29,30.15,29.95,3,1,3,0.00
2014-3-26,35,31,25,20,12,2,64,46,31,30.00,29.58,10,5,13,0.00
2014-3-27,47,32,20,18,5,1,47,32,18,30.32,30.02,6,3,9,0.00
2014-3-28,60,46,35,47,37,18,87,70,49,30.26,29.95,3,1,11,0.03
2014-3-29,54,46,40,47,40,38,91,82,63,30.24,30.00,4,1,5,0.69
2014-3-30,42,40,36,40,37,33,92,91,90,29.99,29.63,2,1,5,2.01
2014-3-31,41,37,34,36,33,31,92,87,73,29.99,29.69,4,1,4,0.55